createdAt,value
2018-06-30T00:01:22.994Z,18.10
2018-06-30T00:03:53.153Z,20.10
2018-06-30T00:06:21.638Z,22.77
2018-06-30T00:08:49.365Z,16.30
2018-06-30T00:11:17.010Z,15.33
2018-06-30T00:13:44.696Z,19.77
2018-06-30T00:16:12.336Z,16.20
2018-06-30T00:18:40.375Z,18.43
2018-06-30T00:21:08.354Z,20.00
2018-06-30T00:23:35.994Z,17.73
2018-06-30T00:26:03.797Z,21.00
2018-06-30T00:28:31.442Z,16.03
2018-06-30T00:30:59.080Z,17.70
2018-06-30T00:33:26.796Z,18.83
2018-06-30T00:35:54.528Z,20.33
2018-06-30T00:38:22.279Z,21.77
2018-06-30T00:40:49.896Z,19.37
2018-06-30T00:43:17.576Z,28.20
2018-06-30T00:45:45.200Z,24.50
2018-06-30T00:48:12.880Z,18.83
2018-06-30T00:50:40.529Z,22.30
2018-06-30T00:53:08.124Z,21.30
2018-06-30T00:55:35.716Z,24.20
2018-06-30T00:58:03.356Z,23.07
2018-06-30T01:00:30.952Z,21.43
2018-06-30T01:02:58.610Z,20.57
2018-06-30T01:05:26.252Z,30.23
2018-06-30T01:07:54.094Z,25.50
2018-06-30T01:10:21.728Z,21.27
2018-06-30T01:12:49.376Z,28.63
2018-06-30T01:15:17.043Z,20.60
2018-06-30T01:17:44.650Z,22.87
2018-06-30T01:20:12.290Z,26.00
2018-06-30T01:22:39.917Z,27.90
2018-06-30T01:25:07.552Z,26.87
2018-06-30T01:27:35.240Z,24.17
2018-06-30T01:30:02.979Z,21.27
2018-06-30T01:32:30.643Z,20.10
2018-06-30T01:34:58.249Z,23.87
2018-06-30T01:37:25.855Z,22.93
2018-06-30T01:39:53.410Z,24.97
2018-06-30T01:42:21.031Z,25.43
2018-06-30T01:44:48.674Z,23.40
2018-06-30T01:47:16.322Z,24.10
2018-06-30T01:49:43.968Z,28.07
2018-06-30T01:52:11.616Z,23.93
2018-06-30T01:54:39.225Z,27.67
2018-06-30T01:57:06.887Z,28.70
2018-06-30T01:59:34.643Z,22.30
2018-06-30T02:02:02.496Z,22.30
2018-06-30T02:04:30.148Z,27.47
2018-06-30T02:06:57.773Z,31.50
2018-06-30T02:09:25.419Z,25.70
2018-06-30T02:11:53.089Z,20.83
2018-06-30T02:14:20.713Z,22.67
2018-06-30T02:16:48.379Z,32.57
2018-06-30T02:19:16.043Z,26.47
2018-06-30T02:21:43.697Z,24.60
2018-06-30T02:24:11.327Z,29.00
2018-06-30T02:26:38.960Z,23.63
2018-06-30T02:29:06.686Z,23.07
2018-06-30T02:31:34.311Z,28.23
2018-06-30T02:34:01.976Z,21.47
2018-06-30T02:36:29.594Z,28.53
2018-06-30T02:38:57.244Z,24.10
2018-06-30T02:41:24.905Z,25.50
2018-06-30T02:43:52.731Z,22.77
2018-06-30T02:46:20.365Z,22.60
2018-06-30T02:48:48.015Z,23.83
2018-06-30T02:51:15.619Z,27.73
2018-06-30T02:53:43.218Z,23.20
2018-06-30T02:56:10.863Z,21.90
2018-06-30T02:58:38.472Z,24.40
2018-06-30T03:01:06.161Z,19.70
2018-06-30T03:03:33.871Z,24.10
2018-06-30T03:06:01.773Z,28.10
2018-06-30T03:08:29.741Z,27.80
2018-06-30T03:10:57.411Z,22.70
2018-06-30T03:13:25.045Z,25.67
2018-06-30T03:15:52.641Z,22.43
2018-06-30T03:18:20.282Z,25.60
2018-06-30T03:20:47.917Z,24.63
2018-06-30T03:23:15.557Z,24.17
2018-06-30T03:25:43.235Z,24.87
2018-06-30T03:28:10.837Z,29.47
2018-06-30T03:30:38.498Z,24.13
2018-06-30T03:33:06.265Z,24.57
2018-06-30T03:35:33.921Z,23.97
2018-06-30T03:38:01.577Z,23.07
2018-06-30T03:40:29.237Z,22.90
2018-06-30T03:42:56.872Z,25.07
2018-06-30T03:45:24.507Z,26.33
2018-06-30T03:47:52.207Z,21.27
2018-06-30T03:50:19.819Z,23.97
2018-06-30T03:52:47.476Z,20.73
2018-06-30T03:55:15.119Z,24.27
2018-06-30T03:57:42.760Z,26.37
2018-06-30T04:00:10.589Z,23.27
2018-06-30T04:02:38.237Z,23.97
2018-06-30T04:05:05.889Z,20.17
2018-06-30T04:07:33.615Z,21.10
2018-06-30T04:10:01.252Z,23.67
2018-06-30T04:12:29.081Z,21.17
2018-06-30T04:14:56.746Z,22.23
2018-06-30T04:17:24.391Z,19.47
2018-06-30T04:19:52.017Z,21.20
2018-06-30T04:22:19.698Z,18.87
2018-06-30T04:24:47.257Z,26.43
2018-06-30T04:27:14.876Z,28.10
2018-06-30T04:29:42.489Z,18.40
2018-06-30T04:32:10.082Z,20.43
2018-06-30T04:34:37.695Z,20.60
2018-06-30T04:37:05.315Z,25.30
2018-06-30T04:39:32.997Z,19.90
2018-06-30T04:42:00.645Z,21.67
2018-06-30T04:44:28.299Z,20.73
2018-06-30T04:46:55.946Z,26.40
2018-06-30T04:49:23.751Z,22.73
2018-06-30T04:51:51.361Z,17.63
2018-06-30T04:54:18.993Z,20.07
2018-06-30T04:56:46.613Z,18.67
2018-06-30T04:59:14.225Z,20.53
2018-06-30T05:01:41.850Z,18.83
2018-06-30T05:04:09.460Z,22.53
2018-06-30T05:06:37.134Z,23.77
2018-06-30T05:09:06.274Z,18.03
2018-06-30T05:11:33.889Z,18.70
2018-06-30T05:14:01.588Z,23.10
2018-06-30T05:16:29.239Z,21.23
2018-06-30T05:18:56.870Z,16.37
2018-06-30T05:21:24.510Z,23.37
2018-06-30T05:23:52.142Z,21.43
2018-06-30T05:26:19.705Z,19.33
2018-06-30T05:28:47.335Z,16.90
2018-06-30T05:31:14.961Z,18.00
2018-06-30T05:33:42.802Z,22.23
2018-06-30T05:36:10.143Z,22.07
2018-06-30T05:38:37.786Z,16.23
2018-06-30T05:41:05.570Z,22.93
2018-06-30T05:43:33.174Z,18.40
2018-06-30T05:46:00.868Z,16.63
2018-06-30T05:48:28.504Z,15.77
2018-06-30T05:50:56.250Z,19.90
2018-06-30T05:53:23.897Z,21.17
2018-06-30T05:55:51.520Z,19.20
2018-06-30T05:58:19.139Z,15.43
2018-06-30T06:00:46.807Z,20.23
2018-06-30T06:03:14.442Z,16.57
2018-06-30T06:05:42.108Z,18.20
2018-06-30T06:08:09.744Z,15.70
2018-06-30T06:10:37.392Z,19.80
2018-06-30T06:13:05.032Z,14.07
2018-06-30T06:15:32.692Z,19.80
2018-06-30T06:18:00.330Z,17.70
2018-06-30T06:20:27.979Z,17.40
2018-06-30T06:22:55.623Z,19.03
2018-06-30T06:25:23.245Z,19.87
2018-06-30T06:27:50.893Z,15.80
2018-06-30T06:30:18.551Z,15.70
2018-06-30T06:32:46.205Z,13.73
2018-06-30T06:35:13.910Z,12.20
2018-06-30T06:37:41.587Z,20.97
2018-06-30T06:40:09.238Z,19.27
2018-06-30T06:42:36.840Z,20.17
2018-06-30T06:45:04.500Z,14.50
2018-06-30T06:47:32.127Z,20.50
2018-06-30T06:49:59.778Z,18.77
2018-06-30T06:52:27.455Z,17.17
2018-06-30T06:54:55.087Z,17.20
2018-06-30T06:57:22.735Z,20.83
2018-06-30T06:59:50.384Z,14.90
2018-06-30T07:02:18.030Z,14.37
2018-06-30T07:04:45.776Z,15.73
2018-06-30T07:07:13.403Z,17.47
2018-06-30T07:09:41.024Z,18.80
2018-06-30T07:12:08.677Z,17.10
2018-06-30T07:14:36.326Z,20.03
2018-06-30T07:17:03.971Z,17.80
2018-06-30T07:19:31.639Z,18.60
2018-06-30T07:21:59.269Z,17.13
2018-06-30T07:24:26.917Z,19.93
2018-06-30T07:26:54.555Z,19.03
2018-06-30T07:29:22.103Z,20.97
2018-06-30T07:31:49.749Z,15.77
2018-06-30T07:34:17.449Z,20.87
2018-06-30T07:36:45.090Z,17.00
2018-06-30T07:39:12.761Z,18.40
2018-06-30T07:41:41.049Z,15.70
2018-06-30T07:44:08.675Z,19.13
2018-06-30T07:46:36.342Z,17.70
2018-06-30T07:49:04.020Z,21.67
2018-06-30T07:51:31.707Z,21.63
2018-06-30T07:53:59.483Z,26.33
2018-06-30T07:56:27.150Z,23.53
2018-06-30T07:58:54.809Z,22.10
2018-06-30T08:01:22.526Z,25.20
2018-06-30T08:03:50.177Z,21.37
2018-06-30T08:06:17.787Z,14.77
2018-06-30T08:08:45.423Z,16.63
2018-06-30T08:11:13.082Z,19.97
2018-06-30T08:13:40.713Z,34.20
2018-06-30T08:16:08.350Z,14.50
2018-06-30T08:18:35.998Z,44.70
2018-06-30T08:21:03.669Z,20.53
2018-06-30T08:23:31.333Z,33.00
2018-06-30T08:25:59.029Z,19.33
2018-06-30T08:28:26.707Z,23.20
2018-06-30T08:30:54.321Z,18.53
2018-06-30T08:33:21.981Z,21.07
2018-06-30T08:35:49.646Z,16.33
2018-06-30T08:38:17.304Z,21.80
2018-06-30T08:40:44.944Z,19.67
2018-06-30T08:43:12.592Z,20.40
2018-06-30T08:45:40.347Z,21.93
2018-06-30T08:48:07.994Z,20.87
2018-06-30T08:50:35.611Z,20.03
2018-06-30T08:53:03.268Z,32.40
2018-06-30T08:55:30.920Z,29.63
2018-06-30T08:57:58.531Z,26.57
2018-06-30T09:00:26.152Z,18.80
2018-06-30T09:02:53.786Z,24.07
2018-06-30T09:05:21.424Z,31.73
2018-06-30T09:07:49.048Z,15.10
2018-06-30T09:10:16.682Z,26.77
2018-06-30T09:12:44.328Z,21.60
2018-06-30T09:15:11.977Z,23.13
2018-06-30T09:17:39.626Z,18.07
2018-06-30T09:20:07.266Z,29.43
2018-06-30T09:22:34.896Z,18.73
2018-06-30T09:25:02.552Z,20.30
2018-06-30T09:27:30.196Z,15.30
2018-06-30T09:29:57.826Z,20.67
2018-06-30T09:32:25.494Z,23.77
2018-06-30T09:34:53.136Z,28.63
2018-06-30T09:37:20.797Z,21.27
2018-06-30T09:39:48.464Z,23.57
2018-06-30T09:42:16.104Z,24.60
2018-06-30T09:44:43.750Z,18.63
2018-06-30T09:47:11.384Z,18.87
2018-06-30T09:49:39.010Z,18.60
2018-06-30T09:52:06.392Z,19.70
2018-06-30T09:54:34.122Z,19.90
2018-06-30T09:57:01.784Z,19.43
2018-06-30T09:59:29.451Z,17.70
2018-06-30T10:01:57.070Z,15.37
2018-06-30T10:04:24.732Z,25.47
2018-06-30T10:06:52.425Z,15.33
2018-06-30T10:09:20.056Z,26.40
2018-06-30T10:11:47.688Z,16.83
2018-06-30T10:14:15.256Z,14.40
2018-06-30T10:16:42.912Z,12.27
2018-06-30T10:19:10.643Z,12.60
2018-06-30T10:21:38.199Z,15.73
2018-06-30T10:24:05.869Z,17.33
2018-06-30T10:26:33.536Z,12.47
2018-06-30T10:29:01.176Z,11.57
2018-06-30T10:31:28.848Z,14.63
2018-06-30T10:33:56.492Z,22.17
2018-06-30T10:36:24.133Z,11.63
2018-06-30T10:38:51.836Z,18.10
2018-06-30T10:41:19.455Z,12.60
2018-06-30T10:43:47.120Z,14.30
2018-06-30T10:46:14.818Z,10.03
2018-06-30T10:48:42.508Z,12.58
2018-06-30T10:51:10.159Z,13.60
2018-06-30T10:53:37.812Z,7.90
2018-06-30T10:56:05.481Z,20.17
2018-06-30T10:58:33.141Z,7.80
2018-06-30T11:01:00.782Z,12.15
2018-06-30T11:03:28.417Z,13.28
2018-06-30T11:05:56.149Z,9.35
2018-06-30T11:08:23.703Z,10.30
2018-06-30T11:10:51.363Z,16.23
2018-06-30T11:13:18.977Z,9.88
2018-06-30T11:15:46.656Z,6.85
2018-06-30T11:18:14.303Z,6.65
2018-06-30T11:20:41.964Z,7.08
2018-06-30T11:23:09.650Z,11.90
2018-06-30T11:25:37.333Z,9.35
2018-06-30T11:28:05.160Z,10.08
2018-06-30T11:30:32.790Z,16.15
2018-06-30T11:33:00.533Z,8.38
2018-06-30T11:35:28.174Z,10.25
2018-06-30T11:37:55.830Z,16.45
2018-06-30T11:40:23.444Z,10.40
2018-06-30T11:42:51.128Z,8.78
2018-06-30T11:45:18.753Z,11.90
2018-06-30T11:47:46.362Z,8.05
2018-06-30T11:50:14.005Z,11.35
2018-06-30T11:52:41.617Z,9.00
2018-06-30T11:55:09.162Z,7.97
2018-06-30T11:57:36.800Z,5.70
2018-06-30T12:00:04.857Z,5.92
2018-06-30T12:02:32.501Z,11.38
2018-06-30T12:05:00.095Z,7.60
2018-06-30T12:07:27.716Z,6.35
2018-06-30T12:09:55.340Z,6.28
2018-06-30T12:12:22.966Z,8.88
2018-06-30T12:14:50.621Z,8.40
2018-06-30T12:17:18.212Z,10.15
2018-06-30T12:19:45.877Z,6.22
2018-06-30T12:22:13.565Z,8.75
2018-06-30T12:24:41.204Z,7.25
2018-06-30T12:27:08.847Z,9.65
2018-06-30T12:29:36.505Z,7.85
2018-06-30T12:32:04.194Z,6.53
2018-06-30T12:34:31.850Z,4.12
2018-06-30T12:36:59.445Z,5.97
2018-06-30T12:39:27.101Z,10.95
2018-06-30T12:41:54.729Z,23.02
2018-06-30T12:44:22.415Z,8.33
2018-06-30T12:46:50.082Z,7.67
2018-06-30T12:49:17.744Z,4.97
2018-06-30T12:51:45.418Z,4.78
2018-06-30T12:54:13.188Z,6.72
2018-06-30T12:56:40.796Z,5.12
2018-06-30T12:59:08.388Z,8.73
2018-06-30T13:01:36.008Z,7.00
2018-06-30T13:04:03.676Z,4.30
2018-06-30T13:06:31.334Z,4.70
2018-06-30T13:08:58.964Z,4.28
2018-06-30T13:11:26.605Z,6.12
2018-06-30T13:13:54.356Z,4.87
2018-06-30T13:16:22.012Z,7.80
2018-06-30T13:18:49.645Z,7.50
2018-06-30T13:21:17.696Z,11.97
2018-06-30T13:23:45.342Z,9.88
2018-06-30T13:26:13.060Z,5.33
2018-06-30T13:28:40.773Z,4.90
2018-06-30T13:31:08.354Z,6.58
2018-06-30T13:33:35.973Z,11.28
2018-06-30T13:36:03.613Z,3.85
2018-06-30T13:38:31.164Z,7.17
2018-06-30T13:40:58.804Z,4.40
2018-06-30T13:43:26.573Z,8.40
2018-06-30T13:45:54.174Z,11.12
2018-06-30T13:48:21.793Z,7.15
2018-06-30T13:50:49.416Z,50.28
2018-06-30T13:53:17.016Z,8.75
2018-06-30T13:55:44.611Z,7.33
2018-06-30T13:58:12.207Z,8.15
2018-06-30T14:00:39.848Z,6.37
2018-06-30T14:03:07.486Z,6.92
2018-06-30T14:05:35.156Z,3.80
2018-06-30T14:08:02.771Z,3.45
2018-06-30T14:10:30.353Z,4.10
2018-06-30T14:12:58.039Z,4.60
2018-06-30T14:15:25.732Z,5.25
2018-06-30T14:17:53.362Z,3.50
2018-06-30T14:20:21.024Z,6.08
2018-06-30T14:22:48.608Z,5.40
2018-06-30T14:25:16.224Z,4.45
2018-06-30T14:27:43.861Z,4.05
2018-06-30T14:30:12.380Z,4.95
2018-06-30T14:32:40.577Z,4.08
2018-06-30T14:35:08.733Z,4.80
2018-06-30T14:37:36.659Z,6.92
2018-06-30T14:40:04.698Z,4.17
2018-06-30T14:42:32.348Z,4.65
2018-06-30T14:44:59.978Z,3.62
2018-06-30T14:47:27.649Z,3.33
2018-06-30T14:49:55.282Z,5.05
2018-06-30T14:52:22.970Z,6.10
2018-06-30T14:54:50.617Z,3.35
2018-06-30T14:57:18.353Z,7.45
2018-06-30T14:59:45.996Z,6.83
2018-06-30T15:02:13.661Z,4.22
2018-06-30T15:04:41.301Z,4.80
2018-06-30T15:07:08.998Z,4.83
2018-06-30T15:09:36.630Z,4.35
2018-06-30T15:12:04.276Z,4.22
2018-06-30T15:14:31.910Z,7.00
2018-06-30T15:16:59.533Z,4.83
2018-06-30T15:19:27.188Z,5.50
2018-06-30T15:21:54.798Z,5.17
2018-06-30T15:24:22.417Z,4.75
2018-06-30T15:26:50.039Z,4.00
2018-06-30T15:29:17.680Z,6.03
2018-06-30T15:31:45.344Z,6.78
2018-06-30T15:34:13.005Z,4.90
2018-06-30T15:36:40.677Z,6.97
2018-06-30T15:39:09.401Z,5.17
2018-06-30T15:41:37.116Z,8.85
2018-06-30T15:44:05.020Z,4.17
2018-06-30T15:46:32.698Z,7.20
2018-06-30T15:49:00.364Z,4.47
2018-06-30T15:51:28.000Z,3.37
2018-06-30T15:53:55.663Z,6.78
2018-06-30T15:56:23.351Z,4.15
2018-06-30T15:58:50.997Z,3.95
2018-06-30T16:01:18.657Z,4.40
2018-06-30T16:03:47.129Z,3.80
2018-06-30T16:06:14.753Z,11.10
2018-06-30T16:08:42.418Z,5.60
2018-06-30T16:11:10.075Z,6.35
2018-06-30T16:13:37.682Z,3.70
2018-06-30T16:16:05.623Z,5.12
2018-06-30T16:18:33.303Z,3.90
2018-06-30T16:21:00.935Z,11.05
2018-06-30T16:23:28.602Z,6.95
2018-06-30T16:25:56.214Z,5.28
2018-06-30T16:28:23.858Z,4.45
2018-06-30T16:30:51.487Z,5.97
2018-06-30T16:33:19.118Z,4.33
2018-06-30T16:35:46.747Z,5.70
2018-06-30T16:38:14.453Z,7.83
2018-06-30T16:40:42.079Z,5.80
2018-06-30T16:43:09.708Z,4.67
2018-06-30T16:45:37.402Z,4.62
2018-06-30T16:48:05.143Z,4.92
2018-06-30T16:50:32.756Z,5.33
2018-06-30T16:53:00.364Z,4.42
2018-06-30T16:55:28.010Z,4.28
2018-06-30T16:57:55.654Z,7.15
2018-06-30T17:00:23.347Z,6.22
2018-06-30T17:02:50.995Z,9.95
2018-06-30T17:05:18.667Z,5.92
2018-06-30T17:07:46.304Z,7.40
2018-06-30T17:10:13.989Z,9.10
2018-06-30T17:12:41.637Z,8.88
2018-06-30T17:15:09.356Z,4.97
2018-06-30T17:17:37.031Z,8.13
2018-06-30T17:20:04.764Z,6.15
2018-06-30T17:22:32.428Z,4.47
2018-06-30T17:25:00.070Z,7.55
2018-06-30T17:27:27.719Z,6.05
2018-06-30T17:29:55.383Z,13.13
2018-06-30T17:32:23.071Z,4.78
2018-06-30T17:34:50.705Z,4.03
2018-06-30T17:37:18.371Z,6.33
2018-06-30T17:39:46.122Z,5.90
2018-06-30T17:42:13.749Z,4.72
2018-06-30T17:44:41.419Z,4.80
2018-06-30T17:47:09.065Z,5.03
2018-06-30T17:49:36.695Z,6.10
2018-06-30T17:52:04.373Z,4.67
2018-06-30T17:54:32.025Z,7.15
2018-06-30T17:56:59.671Z,4.58
2018-06-30T17:59:27.303Z,8.00
2018-06-30T18:01:54.967Z,4.47
2018-06-30T18:04:22.600Z,14.18
2018-06-30T18:06:50.252Z,4.80
2018-06-30T18:09:17.965Z,4.53
2018-06-30T18:11:45.626Z,4.95
2018-06-30T18:14:13.313Z,4.92
2018-06-30T18:16:40.920Z,5.60
2018-06-30T18:19:08.580Z,7.22
2018-06-30T18:21:36.245Z,5.15
2018-06-30T18:24:04.141Z,8.60
2018-06-30T18:26:31.883Z,5.15
2018-06-30T18:28:59.524Z,8.03
2018-06-30T18:31:27.187Z,5.30
2018-06-30T18:33:54.785Z,6.70
2018-06-30T18:36:22.456Z,13.43
2018-06-30T18:38:50.119Z,6.35
2018-06-30T18:41:17.798Z,5.33
2018-06-30T18:43:45.434Z,7.12
2018-06-30T18:46:13.098Z,6.60
2018-06-30T18:48:40.781Z,7.87
2018-06-30T18:51:08.428Z,7.65
2018-06-30T18:53:36.094Z,8.93
2018-06-30T18:56:04.018Z,8.13
2018-06-30T18:58:31.676Z,10.50
2018-06-30T19:00:59.352Z,10.08
2018-06-30T19:03:26.982Z,9.50
2018-06-30T19:05:54.654Z,10.13
2018-06-30T19:08:22.323Z,12.00
2018-06-30T19:10:49.980Z,7.53
2018-06-30T19:13:17.606Z,7.37
2018-06-30T19:15:45.300Z,9.20
2018-06-30T19:18:12.908Z,6.47
2018-06-30T19:20:40.554Z,6.67
2018-06-30T19:23:08.236Z,7.03
2018-06-30T19:25:35.879Z,21.48
2018-06-30T19:28:03.574Z,9.05
2018-06-30T19:30:31.220Z,10.80
2018-06-30T19:32:58.900Z,7.90
2018-06-30T19:35:26.525Z,7.40
2018-06-30T19:37:54.188Z,7.58
2018-06-30T19:40:21.902Z,7.47
2018-06-30T19:42:49.574Z,9.55
2018-06-30T19:45:17.249Z,7.08
2018-06-30T19:47:45.120Z,8.68
2018-06-30T19:50:12.832Z,7.00
2018-06-30T19:52:40.600Z,4.50
2018-06-30T19:55:08.226Z,5.45
2018-06-30T19:57:35.950Z,4.25
2018-06-30T20:00:04.710Z,6.92
2018-06-30T20:02:32.368Z,6.47
2018-06-30T20:05:00.102Z,7.47
2018-06-30T20:07:27.836Z,5.70
2018-06-30T20:09:55.506Z,6.47
2018-06-30T20:12:23.152Z,5.90
2018-06-30T20:14:50.804Z,5.50
2018-06-30T20:17:18.430Z,11.48
2018-06-30T20:19:46.116Z,5.22
2018-06-30T20:22:13.786Z,4.25
2018-06-30T20:24:41.436Z,5.80
2018-06-30T20:27:09.085Z,5.00
2018-06-30T20:29:36.740Z,8.70
2018-06-30T20:32:04.433Z,6.53
2018-06-30T20:34:32.046Z,2.83
2018-06-30T20:36:59.729Z,3.43
2018-06-30T20:39:27.376Z,6.92
2018-06-30T20:41:55.049Z,6.40
2018-06-30T20:44:22.715Z,7.03
2018-06-30T20:46:50.413Z,8.50
2018-06-30T20:49:18.042Z,4.70
2018-06-30T20:51:45.767Z,8.20
2018-06-30T20:54:13.481Z,8.50
2018-06-30T20:56:41.057Z,9.67
2018-06-30T20:59:08.708Z,7.00
2018-06-30T21:01:36.405Z,4.93
2018-06-30T21:04:04.045Z,7.17
2018-06-30T21:06:31.877Z,6.37
2018-06-30T21:08:59.598Z,4.63
2018-06-30T21:11:27.278Z,8.43
2018-06-30T21:13:54.995Z,15.70
2018-06-30T21:16:22.695Z,5.13
2018-06-30T21:18:50.347Z,4.20
2018-06-30T21:21:18.049Z,3.40
2018-06-30T21:23:45.792Z,6.83
2018-06-30T21:26:13.509Z,9.77
2018-06-30T21:28:41.193Z,5.03
2018-06-30T21:31:08.878Z,7.60
2018-06-30T21:33:36.547Z,10.07
2018-06-30T21:36:04.343Z,3.67
2018-06-30T21:38:32.063Z,3.50
2018-06-30T21:40:59.729Z,13.77
2018-06-30T21:43:27.357Z,2.20
2018-06-30T21:45:55.089Z,2.03
2018-06-30T21:48:22.753Z,1.97
2018-06-30T21:50:50.399Z,5.90
2018-06-30T21:53:18.071Z,2.60
2018-06-30T21:55:45.755Z,1.93
2018-06-30T21:58:13.407Z,2.77
2018-06-30T22:00:49.679Z,3.73
2018-06-30T22:03:20.493Z,3.70
2018-06-30T22:05:48.033Z,2.97
2018-06-30T22:08:15.714Z,2.03
2018-06-30T22:10:43.421Z,2.70
2018-06-30T22:13:11.081Z,3.43
2018-06-30T22:15:38.794Z,3.17
2018-06-30T22:18:06.519Z,4.13
2018-06-30T22:20:34.940Z,2.73
2018-06-30T22:23:03.057Z,2.90
2018-06-30T22:25:31.071Z,4.30
2018-06-30T22:27:58.789Z,3.37
2018-06-30T22:30:26.508Z,2.63
2018-06-30T22:32:54.150Z,2.60
2018-06-30T22:35:21.837Z,1.37
2018-06-30T22:37:49.533Z,1.47
2018-06-30T22:40:18.497Z,2.73
2018-06-30T22:42:46.661Z,1.30
2018-06-30T22:45:15.153Z,1.20
2018-06-30T22:47:43.082Z,9.23
2018-06-30T22:50:10.680Z,4.30
2018-06-30T22:52:38.779Z,2.03
2018-06-30T22:55:06.708Z,1.73
2018-06-30T22:57:34.909Z,2.97
2018-06-30T23:00:02.690Z,1.37
2018-06-30T23:02:30.229Z,2.87
2018-06-30T23:04:57.894Z,1.00
2018-06-30T23:07:25.586Z,4.47
2018-06-30T23:09:53.611Z,6.67
2018-06-30T23:12:21.355Z,4.97
2018-06-30T23:14:49.142Z,1.33
2018-06-30T23:17:16.815Z,3.80
2018-06-30T23:19:44.425Z,3.37
2018-06-30T23:22:12.209Z,2.70
2018-06-30T23:24:39.932Z,2.33
2018-06-30T23:27:07.604Z,1.50
2018-06-30T23:29:35.295Z,1.27
2018-06-30T23:32:03.002Z,0.80
2018-06-30T23:34:30.645Z,1.30
2018-06-30T23:36:58.299Z,4.20
2018-06-30T23:39:25.953Z,1.10
2018-06-30T23:41:53.665Z,1.43
2018-06-30T23:44:21.325Z,6.97
2018-06-30T23:46:49.012Z,6.00
2018-06-30T23:49:16.689Z,1.80
2018-06-30T23:51:44.392Z,1.63
2018-06-30T23:54:12.243Z,2.40
2018-06-30T23:56:39.920Z,5.83
2018-06-30T23:59:07.614Z,5.67
